map of UDE home
UDE - Airport
Location
City:  Uden, Noord-Brabant (North Brabant), Netherlands
Name:Volkel AB
ICAO:EHVK
IATA:UDE

Details
Type:Airport (Aerodrome, Airfield)
Use:Military, International (customs port of entry)
Latitude:5139'23"N (51.656389)
Longitude:542'31"E (5.708611)
Datum:WGS 1984
Elevation:72 ft (22 m)
Variation:1.59E (WMM2015 magnetic declination)
0.14 annual change
Runways:2
Longest:9931 × 74 ft (3027 × 22.5 m), paved

Time
Time Zone:UTC+1 (DST+2)
Local Time:

Weather
METAR:EHVK 221555Z AUTO 35007KT 300V020 9999 NCD 13/06 Q1033 BLU
TAF:EHVK 220837Z 2209/2221 36008KT 9999 SCT025
BECMG 2218/2221 27005KT

Related Locations
Nearby:
Farthest:CHT: 11879 mi / 19117 km
Waitangi [Tuuta], CIT, NZ

Find:

   beyond  
but within

Other Information
Maps:
NOTAMs:
Links:
Sources:

  
  • flag of Netherlands
  • flag of Noord-Brabant (North Brabant)
  

Airport Diagram

Airport diagram for UDE

Larger airport diagram (OBSOLETE) from NGA

Sectional Chart

Flight Planning
at skyvector.com

Satellite Image

Google Maps Satellite view

 

Copyright © 2004-2018 Karl L. Swartz. All rights reserved.
The Great Circle Mapper name and logo are trademarks of the Great Circle Mapper.
All other trademarks mentioned herein belong to their respective owners.
Please see credits for attibutions and further copyright information.

  Follow gcmap on Facebook Follow gcmap on Twitter Follow gcmap on Google+ GCmap on LinkedIn

hCard Microformat

Geo Microformat